Time;durP1;ratioP1;P1;durP2;ratioP2;P2;SDS_P1;SDS_P2;PMS_P1;PMS_P2;Temp;Humidity;BMP_temperature;BMP_pressure;BME280_temperature;BME280_humidity;BME280_pressure;Samples;Min_cycle;Max_cycle;Signal;HPM_P1;HPM_P2
2022/03/06 00:01:05;;;;;;;32.17;16.77;;;;;;;1.60;100.00;102556.06;5037489;28;20025;-75
2022/03/06 00:03:31;;;;;;;32.40;15.63;;;;;;;1.59;100.00;102552.59;5050493;28;20017;-75
2022/03/06 00:05:57;;;;;;;28.48;14.27;;;;;;;1.43;100.00;102559.91;5056209;28;20423;-78
2022/03/06 00:08:22;;;;;;;37.03;14.88;;;;;;;1.45;100.00;102558.34;5047111;28;20503;-77
2022/03/06 00:10:48;;;;;;;31.88;15.13;;;;;;;1.40;100.00;102564.84;5053025;28;20147;-75
2022/03/06 00:13:14;;;;;;;29.50;14.32;;;;;;;1.43;100.00;102570.28;5056481;28;20028;-75
2022/03/06 00:15:43;;;;;;;29.52;14.90;;;;;;;1.41;100.00;102571.84;5044626;28;20469;-75
2022/03/06 00:18:09;;;;;;;31.45;13.95;;;;;;;1.34;100.00;102563.56;5064880;28;20033;-75
2022/03/06 00:20:35;;;;;;;31.80;15.00;;;;;;;1.29;100.00;102561.34;5058257;28;20043;-75
2022/03/06 00:23:00;;;;;;;28.23;15.40;;;;;;;1.24;100.00;102568.78;5058242;28;20043;-75
2022/03/06 00:25:26;;;;;;;31.77;15.13;;;;;;;1.23;100.00;102566.97;5074172;28;20021;-75
2022/03/06 00:27:51;;;;;;;30.15;14.45;;;;;;;1.31;100.00;102570.19;5056684;28;20032;-75
2022/03/06 00:30:16;;;;;;;30.88;14.68;;;;;;;1.17;100.00;102566.47;5072806;28;20548;-75
2022/03/06 00:32:42;;;;;;;28.52;13.88;;;;;;;1.12;100.00;102570.38;5069083;28;20020;-76
2022/03/06 00:35:08;;;;;;;30.25;14.75;;;;;;;1.04;100.00;102568.81;5030472;28;20035;-76
2022/03/06 00:37:34;;;;;;;31.13;14.25;;;;;;;1.10;100.00;102572.84;5048286;28;20090;-75
2022/03/06 00:39:59;;;;;;;27.95;14.70;;;;;;;1.09;100.00;102572.72;5046108;28;20460;-76
2022/03/06 00:42:25;;;;;;;26.25;14.23;;;;;;;1.03;100.00;102574.78;5064883;28;20043;-75
2022/03/06 00:44:52;;;;;;;32.78;15.57;;;;;;;1.11;100.00;102573.72;5068370;28;20028;-77
2022/03/06 00:47:18;;;;;;;28.88;14.25;;;;;;;1.11;100.00;102578.91;5068906;28;20481;-77
2022/03/06 00:49:43;;;;;;;30.10;14.02;;;;;;;1.14;100.00;102581.75;5069051;28;20032;-76
2022/03/06 00:52:08;;;;;;;30.27;14.80;;;;;;;1.10;100.00;102579.69;5061251;28;20406;-76
2022/03/06 00:54:34;;;;;;;31.98;14.02;;;;;;;1.07;100.00;102590.72;5035192;28;20029;-76
2022/03/06 00:56:59;;;;;;;29.63;14.98;;;;;;;1.06;100.00;102590.56;5047186;28;20155;-76
2022/03/06 00:59:24;;;;;;;28.63;15.93;;;;;;;0.99;100.00;102603.03;5071608;28;20075;-76
2022/03/06 01:01:50;;;;;;;32.00;15.70;;;;;;;0.97;100.00;102595.91;5061314;28;20028;-76
2022/03/06 01:04:15;;;;;;;28.75;14.80;;;;;;;0.94;100.00;102596.56;5060324;28;20032;-76
2022/03/06 01:06:40;;;;;;;29.38;14.90;;;;;;;0.90;100.00;102597.09;5055487;28;20500;-75
2022/03/06 01:09:06;;;;;;;27.90;13.70;;;;;;;0.88;100.00;102606.41;5036800;28;20025;-76
2022/03/06 01:11:35;;;;;;;28.50;14.35;;;;;;;0.86;100.00;102605.38;5047720;28;20025;-75
2022/03/06 01:14:00;;;;;;;26.80;13.77;;;;;;;0.90;100.00;102607.44;5065758;28;20030;-76
2022/03/06 01:16:26;;;;;;;31.73;15.05;;;;;;;0.83;100.00;102606.03;5049175;28;20396;-76
2022/03/06 01:18:51;;;;;;;33.72;14.20;;;;;;;0.79;100.00;102608.25;5038274;28;20033;-76
2022/03/06 01:21:16;;;;;;;29.52;14.85;;;;;;;0.81;100.00;102612.78;5066267;28;20027;-76
2022/03/06 01:23:42;;;;;;;28.67;13.80;;;;;;;0.82;100.00;102613.66;5060221;28;20072;-76
2022/03/06 01:26:07;;;;;;;28.92;14.93;;;;;;;0.82;100.00;102616.25;5058068;28;20024;-75
2022/03/06 01:28:32;;;;;;;26.55;14.13;;;;;;;0.79;100.00;102622.09;5039850;28;20025;-75
2022/03/06 01:30:58;;;;;;;31.77;15.57;;;;;;;0.75;100.00;102614.84;5072164;28;20025;-75
2022/03/06 01:33:23;;;;;;;26.92;14.05;;;;;;;0.68;100.00;102620.28;5055558;28;20066;-75
2022/03/06 01:35:49;;;;;;;29.02;15.00;;;;;;;0.72;100.00;102626.59;5074400;28;20488;-75
2022/03/06 01:38:14;;;;;;;29.50;15.82;;;;;;;0.73;100.00;102633.63;5063888;28;20103;-75
2022/03/06 01:40:40;;;;;;;26.63;15.50;;;;;;;0.69;100.00;102626.34;5072752;28;20025;-75
2022/03/06 01:43:06;;;;;;;34.13;15.15;;;;;;;0.69;100.00;102631.53;5072924;28;20059;-75
2022/03/06 01:45:31;;;;;;;30.25;16.08;;;;;;;0.67;100.00;102628.81;5060778;28;20353;-75
2022/03/06 01:47:58;;;;;;;34.35;15.85;;;;;;;0.62;100.00;102635.28;5062798;28;20024;-76
2022/03/06 01:50:27;;;;;;;29.67;17.60;;;;;;;0.63;100.00;102632.81;5035414;28;20132;-76
2022/03/06 01:52:54;;;;;;;32.05;16.75;;;;;;;0.66;100.00;102634.78;5062421;28;20048;-76
2022/03/06 01:55:22;;;;;;;32.50;16.33;;;;;;;0.61;100.00;102634.38;5039822;28;20024;-74
2022/03/06 01:57:48;;;;;;;27.13;15.63;;;;;;;0.63;100.00;102632.81;5048401;28;20484;-75
2022/03/06 02:00:21;;;;;;;33.35;15.60;;;;;;;0.59;100.00;102630.75;5062167;28;20031;-75
2022/03/06 02:02:46;;;;;;;33.33;16.25;;;;;;;0.60;100.00;102632.56;5059045;28;20124;-75
2022/03/06 02:05:12;;;;;;;27.98;15.63;;;;;;;0.53;100.00;102643.19;5062072;28;20122;-75
2022/03/06 02:07:38;;;;;;;32.75;16.23;;;;;;;0.46;100.00;102644.34;5060276;28;20025;-75
2022/03/06 02:10:05;;;;;;;36.70;17.08;;;;;;;0.51;100.00;102644.72;5058868;28;20039;-75
2022/03/06 02:12:31;;;;;;;30.25;16.42;;;;;;;0.55;100.00;102643.31;5071551;28;20036;-75
2022/03/06 02:14:59;;;;;;;34.85;17.30;;;;;;;0.62;100.00;102637.88;5066554;28;20037;-76
2022/03/06 02:17:26;;;;;;;36.22;17.77;;;;;;;0.66;100.00;102632.19;5040994;28;20033;-76
2022/03/06 02:19:52;;;;;;;35.25;18.50;;;;;;;0.71;100.00;102640.38;5061772;28;20051;-76
2022/03/06 02:22:27;;;;;;;37.13;18.20;;;;;;;0.76;100.00;102639.97;5066687;28;20025;-76
2022/03/06 02:24:54;;;;;;;33.88;17.98;;;;;;;0.81;100.00;102633.50;5060255;28;20436;-75
2022/03/06 02:27:19;;;;;;;34.15;18.30;;;;;;;0.86;100.00;102635.59;5061569;28;20052;-75
2022/03/06 02:29:45;;;;;;;31.83;17.77;;;;;;;0.90;100.00;102630.78;5067256;28;20449;-75
2022/03/06 02:32:13;;;;;;;37.90;20.25;;;;;;;0.96;100.00;102639.09;5055212;28;20074;-75
2022/03/06 02:34:40;;;;;;;35.03;19.27;;;;;;;1.07;100.00;102636.47;5065709;28;20024;-75
2022/03/06 02:37:06;;;;;;;34.38;18.17;;;;;;;1.09;100.00;102640.13;5062225;28;20033;-75
2022/03/06 02:39:32;;;;;;;30.38;18.00;;;;;;;1.21;100.00;102642.81;5075330;28;20032;-75
2022/03/06 02:41:58;;;;;;;43.17;19.33;;;;;;;1.20;100.00;102644.50;5067436;28;20032;-74
2022/03/06 02:44:25;;;;;;;33.97;19.52;;;;;;;1.16;100.00;102645.03;5056591;28;20032;-76
2022/03/06 02:46:50;;;;;;;35.70;21.55;;;;;;;1.26;100.00;102642.44;5062989;28;20422;-75
2022/03/06 02:49:17;;;;;;;38.53;20.30;;;;;;;1.31;100.00;102633.31;5052623;28;20107;-76
2022/03/06 02:51:44;;;;;;;34.38;19.17;;;;;;;1.37;100.00;102637.22;5063189;28;20558;-76
2022/03/06 02:54:10;;;;;;;37.92;19.70;;;;;;;1.42;100.00;102633.31;5065785;28;20051;-76
2022/03/06 02:56:36;;;;;;;34.50;18.27;;;;;;;1.45;100.00;102633.56;5061690;28;20376;-76
2022/03/06 02:59:03;;;;;;;36.00;19.15;;;;;;;1.46;100.00;102638.88;5054946;28;20027;-75
2022/03/06 03:01:28;;;;;;;36.35;20.42;;;;;;;1.48;100.00;102641.63;5058256;28;20112;-76
2022/03/06 03:03:53;;;;;;;34.53;20.13;;;;;;;1.45;100.00;102636.16;5061902;28;20132;-76
2022/03/06 03:06:19;;;;;;;35.13;18.88;;;;;;;1.44;100.00;102644.72;5053463;28;20074;-76
2022/03/06 03:08:46;;;;;;;37.20;19.17;;;;;;;1.33;100.00;102642.16;5038191;28;20029;-76
2022/03/06 03:11:12;;;;;;;34.15;20.02;;;;;;;1.40;100.00;102650.44;5042213;28;20025;-76
2022/03/06 03:13:37;;;;;;;34.45;19.50;;;;;;;1.35;100.00;102650.97;5049716;28;20074;-76
2022/03/06 03:16:03;;;;;;;34.10;20.08;;;;;;;1.31;100.00;102651.47;5063146;28;20021;-75
2022/03/06 03:18:29;;;;;;;39.03;20.75;;;;;;;1.28;100.00;102655.53;5061710;28;20065;-76
2022/03/06 03:20:55;;;;;;;38.10;22.30;;;;;;;1.27;100.00;102653.72;5072961;28;20074;-76
2022/03/06 03:23:20;;;;;;;33.63;19.70;;;;;;;1.23;100.00;102655.13;5051581;28;20028;-75
2022/03/06 03:25:46;;;;;;;33.28;19.58;;;;;;;1.14;100.00;102659.53;5040108;28;20480;-76
2022/03/06 03:28:11;;;;;;;35.13;20.60;;;;;;;1.13;100.00;102657.75;5068338;28;20534;-76
2022/03/06 03:30:37;;;;;;;34.53;20.63;;;;;;;1.06;100.00;102661.50;5047466;28;20502;-75
2022/03/06 03:33:02;;;;;;;34.80;21.80;;;;;;;1.04;100.00;102656.97;5057315;28;20112;-76
2022/03/06 03:35:28;;;;;;;35.55;19.25;;;;;;;1.05;100.00;102658.78;5064397;28;20032;-76
2022/03/06 03:37:54;;;;;;;38.53;20.52;;;;;;;0.99;100.00;102665.25;5056635;28;20368;-77
2022/03/06 03:40:19;;;;;;;33.25;20.15;;;;;;;0.93;100.00;102659.53;5043006;28;20056;-76
2022/03/06 03:42:44;;;;;;;34.25;21.70;;;;;;;0.93;100.00;102664.72;5071552;28;20028;-77
2022/03/06 03:45:10;;;;;;;33.15;19.90;;;;;;;0.89;100.00;102662.66;5056315;28;20024;-77
2022/03/06 03:47:36;;;;;;;36.70;22.10;;;;;;;0.89;100.00;102657.47;5060284;28;20112;-77
2022/03/06 03:50:02;;;;;;;35.67;21.50;;;;;;;0.89;100.00;102665.25;5057637;28;20038;-76
2022/03/06 03:52:27;;;;;;;34.20;21.63;;;;;;;0.80;100.00;102667.03;5042643;28;20101;-76
2022/03/06 03:54:52;;;;;;;35.67;20.42;;;;;;;0.78;100.00;102668.59;5048941;28;20056;-76
2022/03/06 03:57:18;;;;;;;35.58;21.00;;;;;;;0.77;100.00;102669.38;5030064;28;20029;-77
2022/03/06 03:59:43;;;;;;;33.13;19.92;;;;;;;0.71;100.00;102666.28;5040834;28;20032;-76
2022/03/06 04:02:09;;;;;;;35.60;21.75;;;;;;;0.71;100.00;102663.69;5030251;28;20029;-77
2022/03/06 04:04:34;;;;;;;35.80;21.08;;;;;;;0.68;100.00;102666.91;5029495;28;20028;-76
2022/03/06 04:06:59;;;;;;;34.92;20.55;;;;;;;0.61;100.00;102668.06;5047089;28;20159;-76
2022/03/06 04:09:25;;;;;;;34.35;20.95;;;;;;;0.58;100.00;102664.28;5045044;28;20025;-76
2022/03/06 04:11:50;;;;;;;34.97;19.80;;;;;;;0.63;100.00;102663.00;5054325;28;20040;-77
2022/03/06 04:14:16;;;;;;;35.97;19.52;;;;;;;0.54;100.00;102657.94;5044624;28;20477;-76
2022/03/06 04:16:41;;;;;;;34.85;20.65;;;;;;;0.52;100.00;102669.84;5035862;28;20382;-76
2022/03/06 04:19:07;;;;;;;36.42;20.75;;;;;;;0.51;100.00;102668.03;5037324;28;20104;-76
2022/03/06 04:21:32;;;;;;;36.53;21.17;;;;;;;0.46;100.00;102671.91;5032641;28;20032;-76
2022/03/06 04:23:58;;;;;;;32.03;19.73;;;;;;;0.41;100.00;102658.56;5039700;28;20044;-76
2022/03/06 04:26:23;;;;;;;37.42;21.63;;;;;;;0.42;100.00;102662.06;5038043;28;20025;-76
2022/03/06 04:28:48;;;;;;;38.25;20.27;;;;;;;0.36;100.00;102667.59;5030072;28;20386;-76
2022/03/06 04:31:14;;;;;;;34.53;20.73;;;;;;;0.26;100.00;102675.31;5025120;28;20032;-76
2022/03/06 04:33:39;;;;;;;36.47;22.48;;;;;;;0.27;100.00;102678.09;5036635;28;20013;-76
2022/03/06 04:36:05;;;;;;;41.17;21.73;;;;;;;0.26;100.00;102685.69;5018058;28;20087;-76
2022/03/06 04:38:30;;;;;;;35.75;21.52;;;;;;;0.20;100.00;102675.69;5046462;28;20500;-76
2022/03/06 04:40:55;;;;;;;32.70;20.25;;;;;;;0.21;100.00;102680.13;5020512;28;20036;-76
2022/03/06 04:43:22;;;;;;;36.92;21.23;;;;;;;0.21;100.00;102680.13;5024212;28;20025;-76
2022/03/06 04:45:48;;;;;;;37.17;21.05;;;;;;;0.15;100.00;102682.19;5039485;28;20111;-76
2022/03/06 04:48:13;;;;;;;30.02;19.13;;;;;;;0.13;100.00;102683.72;5028796;28;20071;-76
2022/03/06 04:50:38;;;;;;;35.15;20.38;;;;;;;0.12;100.00;102687.06;5035049;28;20044;-76
2022/03/06 04:53:04;;;;;;;40.25;21.90;;;;;;;0.08;100.00;102695.31;5059231;28;20043;-77
2022/03/06 04:55:29;;;;;;;36.60;21.42;;;;;;;0.13;100.00;102694.06;5060970;28;20511;-77
2022/03/06 04:57:54;;;;;;;38.75;20.38;;;;;;;0.09;100.00;102699.75;5041648;28;20385;-76
2022/03/06 05:00:20;;;;;;;36.35;20.55;;;;;;;0.07;100.00;102703.84;5062351;28;20064;-76
2022/03/06 05:02:45;;;;;;;33.92;19.55;;;;;;;0.06;100.00;102709.84;5063451;28;20479;-76
2022/03/06 05:05:10;;;;;;;31.73;19.52;;;;;;;0.02;100.00;102710.34;5055494;28;20029;-76
2022/03/06 05:07:37;;;;;;;36.97;21.23;;;;;;;0.02;100.00;102711.22;5067543;28;20036;-76
2022/03/06 05:10:06;;;;;;;35.25;21.08;;;;;;;0.06;100.00;102715.00;5055396;28;20037;-76
2022/03/06 05:12:32;;;;;;;33.58;20.55;;;;;;;0.05;100.00;102718.34;5058280;28;20471;-76
2022/03/06 05:14:57;;;;;;;32.38;19.60;;;;;;;-0.04;100.00;102715.84;5056268;28;20083;-76
2022/03/06 05:17:22;;;;;;;33.42;20.00;;;;;;;-0.09;100.00;102715.44;5062084;28;20020;-76
2022/03/06 05:19:48;;;;;;;37.00;19.55;;;;;;;-0.15;100.00;102717.47;5054966;28;20075;-76
2022/03/06 05:22:13;;;;;;;32.00;19.13;;;;;;;-0.13;100.00;102722.81;5063377;28;20427;-77
2022/03/06 05:24:38;;;;;;;33.75;19.88;;;;;;;-0.20;100.00;102723.91;5048244;28;20111;-76
2022/03/06 05:27:04;;;;;;;34.65;20.05;;;;;;;-0.20;100.00;102718.75;5065995;28;20059;-76
2022/03/06 05:29:29;;;;;;;33.85;20.48;;;;;;;-0.14;100.00;102719.28;5040175;28;20025;-77
2022/03/06 05:31:54;;;;;;;33.33;20.77;;;;;;;-0.24;100.00;102722.72;5046571;28;20510;-76
2022/03/06 05:34:20;;;;;;;37.70;19.95;;;;;;;-0.23;100.00;102723.63;5068648;28;20029;-76
2022/03/06 05:36:45;;;;;;;34.38;19.88;;;;;;;-0.25;100.00;102730.34;5044678;28;20074;-76
2022/03/06 05:39:10;;;;;;;32.60;19.58;;;;;;;-0.22;100.00;102730.63;5036673;28;20094;-76
2022/03/06 05:41:36;;;;;;;37.53;21.02;;;;;;;-0.25;100.00;102731.25;5042410;28;20428;-76
2022/03/06 05:44:01;;;;;;;36.67;19.73;;;;;;;-0.24;100.00;102733.06;5040004;28;20032;-76
2022/03/06 05:46:26;;;;;;;37.03;19.13;;;;;;;-0.23;100.00;102739.16;5049781;28;20458;-76
2022/03/06 05:48:52;;;;;;;36.58;19.70;;;;;;;-0.22;100.00;102736.72;5057757;28;20512;-76
2022/03/06 05:51:17;;;;;;;29.90;18.80;;;;;;;-0.24;100.00;102745.09;5060167;28;20511;-77
2022/03/06 05:53:42;;;;;;;31.85;17.27;;;;;;;-0.24;100.00;102747.69;5061785;28;20081;-76
2022/03/06 05:56:08;;;;;;;35.45;19.88;;;;;;;-0.21;100.00;102755.72;5057867;28;20108;-75
2022/03/06 05:58:33;;;;;;;32.70;18.85;;;;;;;-0.21;100.00;102754.03;5058881;28;20033;-75
2022/03/06 06:00:59;;;;;;;27.33;16.40;;;;;;;-0.18;100.00;102753.41;5047647;28;20041;-75
2022/03/06 06:03:25;;;;;;;29.30;18.50;;;;;;;-0.13;100.00;102752.16;5052838;28;20028;-75
2022/03/06 06:05:50;;;;;;;32.10;19.10;;;;;;;-0.13;100.00;102757.34;5044666;28;20480;-75
2022/03/06 06:08:15;;;;;;;26.35;17.13;;;;;;;-0.17;100.00;102761.31;5063995;28;20028;-76
2022/03/06 06:10:41;;;;;;;29.48;17.00;;;;;;;-0.18;100.00;102762.09;5057952;28;20056;-76
2022/03/06 06:13:09;;;;;;;28.25;17.83;;;;;;;-0.18;100.00;102768.94;5065939;28;20028;-76
2022/03/06 06:15:35;;;;;;;28.65;18.25;;;;;;;-0.20;100.00;102773.09;5047593;28;20082;-76
2022/03/06 06:18:01;;;;;;;29.58;17.58;;;;;;;-0.21;100.00;102773.84;5052670;28;20031;-76
2022/03/06 06:20:26;;;;;;;28.48;18.13;;;;;;;-0.21;100.00;102779.00;5051498;28;20415;-76
2022/03/06 06:22:53;;;;;;;29.35;16.90;;;;;;;-0.20;100.00;102786.00;5062042;28;20500;-76
2022/03/06 06:25:18;;;;;;;27.85;16.95;;;;;;;-0.18;100.00;102782.81;5051781;28;20063;-76
2022/03/06 06:27:43;;;;;;;32.75;17.35;;;;;;;-0.19;100.00;102777.47;5062539;28;20386;-76
2022/03/06 06:30:09;;;;;;;30.65;17.80;;;;;;;-0.18;100.00;102789.63;5046171;28;20518;-76
2022/03/06 06:32:35;;;;;;;27.10;16.77;;;;;;;-0.18;100.00;102794.81;5067069;28;20031;-76
2022/03/06 06:35:00;;;;;;;26.98;17.08;;;;;;;-0.16;100.00;102788.13;5040833;28;20027;-76
2022/03/06 06:37:25;;;;;;;27.67;17.50;;;;;;;-0.12;100.00;102792.78;5050758;28;20056;-76
2022/03/06 06:39:51;;;;;;;24.00;16.00;;;;;;;-0.12;100.00;102794.47;5046516;28;20441;-76
2022/03/06 06:42:16;;;;;;;28.45;17.15;;;;;;;-0.11;100.00;102796.28;5055158;28;20031;-76
2022/03/06 06:44:41;;;;;;;27.17;16.95;;;;;;;-0.08;100.00;102800.06;5066654;28;20058;-76
2022/03/06 06:47:07;;;;;;;27.38;15.88;;;;;;;-0.04;100.00;102793.47;5039982;28;20109;-76
2022/03/06 06:49:32;;;;;;;27.80;15.93;;;;;;;-0.02;100.00;102798.03;5049094;28;20472;-78
2022/03/06 06:51:58;;;;;;;24.90;15.73;;;;;;;0.02;100.00;102803.50;5074318;28;20088;-78
2022/03/06 06:54:23;;;;;;;23.45;15.63;;;;;;;0.03;100.00;102802.72;5056921;28;20063;-78
2022/03/06 06:56:49;;;;;;;28.30;16.08;;;;;;;0.06;100.00;102823.72;5053646;28;20039;-78
2022/03/06 06:59:14;;;;;;;26.17;17.17;;;;;;;0.08;100.00;102815.31;5071617;28;20036;-76
2022/03/06 07:01:41;;;;;;;25.08;14.68;;;;;;;0.10;100.00;102824.13;5044992;28;20143;-80
2022/03/06 07:04:06;;;;;;;25.95;14.80;;;;;;;0.13;100.00;102823.50;5048928;28;20032;-78
2022/03/06 07:06:31;;;;;;;30.35;15.25;;;;;;;0.15;100.00;102824.56;5060700;28;20214;-79
2022/03/06 07:08:57;;;;;;;29.52;15.07;;;;;;;0.19;100.00;102826.66;5052117;28;20029;-78
2022/03/06 07:11:22;;;;;;;27.15;14.07;;;;;;;0.23;100.00;102820.97;5044818;28;20028;-77
2022/03/06 07:13:47;;;;;;;25.17;14.63;;;;;;;0.30;100.00;102830.22;5057605;28;20032;-78
2022/03/06 07:16:13;;;;;;;20.02;13.07;;;;;;;0.33;100.00;102831.38;5054049;28;20416;-78
2022/03/06 07:18:39;;;;;;;21.45;13.38;;;;;;;0.36;100.00;102833.34;5053304;28;20020;-78
2022/03/06 07:21:05;;;;;;;20.30;13.15;;;;;;;0.41;100.00;102842.44;5041335;28;20038;-79
2022/03/06 07:23:31;;;;;;;21.95;12.85;;;;;;;0.45;100.00;102838.47;5047622;28;20032;-78
2022/03/06 07:25:57;;;;;;;18.45;12.77;;;;;;;0.51;100.00;102854.53;5053826;28;20059;-78
2022/03/06 07:28:22;;;;;;;20.05;11.52;;;;;;;0.53;100.00;102850.41;5057550;28;20115;-79
2022/03/06 07:30:48;;;;;;;20.50;11.00;;;;;;;0.55;100.00;102853.13;5051156;28;20024;-78
2022/03/06 07:33:14;;;;;;;17.30;10.80;;;;;;;0.60;100.00;102854.47;5059118;28;20103;-78
2022/03/06 07:35:39;;;;;;;17.52;11.50;;;;;;;0.65;100.00;102864.47;5074694;28;20028;-78
2022/03/06 07:38:05;;;;;;;15.52;10.27;;;;;;;0.70;100.00;102871.72;5057295;28;20027;-79
2022/03/06 07:40:30;;;;;;;17.95;10.32;;;;;;;0.71;100.00;102864.09;5065169;28;20032;-78
2022/03/06 07:42:56;;;;;;;21.38;10.80;;;;;;;0.78;100.00;102865.53;5028477;28;20033;-78
2022/03/06 07:45:21;;;;;;;15.95;10.55;;;;;;;0.86;100.00;102867.13;5060293;28;20145;-78
2022/03/06 07:47:46;;;;;;;14.98;9.98;;;;;;;0.91;100.00;102865.88;5066541;28;20044;-78
2022/03/06 07:50:14;;;;;;;18.98;9.50;;;;;;;0.96;100.00;102867.19;5047154;28;20052;-78
2022/03/06 07:52:40;;;;;;;15.75;8.85;;;;;;;1.08;100.00;102871.63;5052377;28;20076;-78
2022/03/06 07:55:07;;;;;;;10.60;7.30;;;;;;;1.18;100.00;102869.03;5073170;28;20116;-78
2022/03/06 07:57:32;;;;;;;13.75;8.35;;;;;;;1.27;100.00;102863.75;5073905;28;20024;-78
2022/03/06 07:59:58;;;;;;;11.55;8.05;;;;;;;1.35;100.00;102868.81;5052690;28;20043;-78
2022/03/06 08:02:23;;;;;;;12.85;8.48;;;;;;;1.45;100.00;102874.81;5071823;28;20025;-79
2022/03/06 08:04:48;;;;;;;11.80;7.47;;;;;;;1.51;100.00;102870.19;5051708;28;20020;-78
2022/03/06 08:07:14;;;;;;;14.18;8.00;;;;;;;1.60;100.00;102876.16;5057605;28;20437;-78
2022/03/06 08:09:39;;;;;;;15.40;8.25;;;;;;;1.70;100.00;102877.84;5037268;28;20025;-76
2022/03/06 08:12:05;;;;;;;10.00;7.53;;;;;;;1.80;100.00;102887.31;5067979;28;20032;-76
2022/03/06 08:14:30;;;;;;;11.85;7.97;;;;;;;1.86;99.32;102880.06;5054390;28;20528;-75
2022/03/06 08:16:56;;;;;;;11.23;7.28;;;;;;;1.88;98.50;102873.31;5054054;28;20107;-75
2022/03/06 08:19:21;;;;;;;11.52;7.30;;;;;;;1.88;98.12;102880.19;5064941;28;20508;-75
2022/03/06 08:21:48;;;;;;;9.85;7.18;;;;;;;1.93;97.58;102887.59;5071529;28;20050;-75
2022/03/06 08:24:13;;;;;;;16.02;7.90;;;;;;;1.96;97.79;102887.84;5043105;28;20051;-75
2022/03/06 08:26:39;;;;;;;14.13;7.32;;;;;;;2.05;95.94;102898.13;5073130;28;20028;-75
2022/03/06 08:29:04;;;;;;;13.63;6.72;;;;;;;2.12;93.86;102891.75;5050707;28;20037;-74
2022/03/06 08:31:30;;;;;;;8.35;6.20;;;;;;;2.21;93.91;102895.09;5055554;28;20097;-74
2022/03/06 08:33:55;;;;;;;11.68;6.97;;;;;;;2.21;92.92;102889.00;5053415;28;20060;-72
2022/03/06 08:36:20;;;;;;;11.38;6.75;;;;;;;2.25;93.00;102889.41;5063422;28;20047;-73
2022/03/06 08:38:45;;;;;;;7.93;6.43;;;;;;;2.26;91.88;102888.59;5068048;28;20020;-73
2022/03/06 08:41:11;;;;;;;10.82;6.15;;;;;;;2.36;91.47;102895.47;5071642;28;20471;-74
2022/03/06 08:43:36;;;;;;;12.02;6.15;;;;;;;2.42;89.95;102889.88;5055296;28;20384;-75
2022/03/06 08:46:03;;;;;;;8.65;5.38;;;;;;;2.45;88.90;102895.34;5062503;28;20161;-74
2022/03/06 08:48:29;;;;;;;10.90;6.50;;;;;;;2.43;89.37;102892.59;5066161;28;20044;-74
2022/03/06 08:50:54;;;;;;;13.52;7.20;;;;;;;2.53;89.68;102899.47;5065578;28;20037;-74
2022/03/06 08:53:20;;;;;;;9.52;6.05;;;;;;;2.60;89.19;102895.69;5068574;28;20027;-75
2022/03/06 08:55:46;;;;;;;11.38;5.90;;;;;;;2.64;87.09;102896.03;5049064;28;20034;-74
2022/03/06 08:58:11;;;;;;;11.32;5.88;;;;;;;2.72;85.29;102890.59;5070553;28;20039;-74
2022/03/06 09:00:36;;;;;;;8.50;5.68;;;;;;;2.77;84.86;102899.66;5069879;28;20469;-73
2022/03/06 09:03:02;;;;;;;7.68;5.03;;;;;;;2.78;83.84;102899.81;5053398;28;20031;-74
2022/03/06 09:05:28;;;;;;;9.10;5.53;;;;;;;2.86;85.38;102900.41;5066374;28;20052;-74
2022/03/06 09:07:53;;;;;;;8.70;5.28;;;;;;;3.11;84.57;102902.41;5047631;28;20028;-74
2022/03/06 09:10:19;;;;;;;8.93;5.25;;;;;;;3.24;84.40;102904.28;5067278;28;20030;-74
2022/03/06 09:12:44;;;;;;;6.05;4.70;;;;;;;3.20;82.33;102883.22;5070386;28;20032;-75
2022/03/06 09:15:10;;;;;;;6.57;4.85;;;;;;;3.25;80.99;102896.59;5068819;28;20028;-74
2022/03/06 09:17:36;;;;;;;7.93;4.70;;;;;;;3.42;81.14;102897.00;5070669;28;20455;-78
2022/03/06 09:20:04;;;;;;;7.75;4.40;;;;;;;3.58;80.50;102907.88;5052319;28;20120;-75
2022/03/06 09:22:29;;;;;;;6.78;4.70;;;;;;;3.78;78.59;102898.97;5065290;28;20062;-75
2022/03/06 09:24:55;;;;;;;5.60;4.47;;;;;;;4.09;78.50;102900.44;5067591;28;20030;-73
2022/03/06 09:27:20;;;;;;;7.68;4.88;;;;;;;4.21;77.58;102893.56;5051159;28;20040;-74
2022/03/06 09:29:45;;;;;;;7.20;4.68;;;;;;;4.51;76.35;102894.03;5070432;28;20028;-73
2022/03/06 09:32:11;;;;;;;8.90;5.00;;;;;;;4.55;76.76;102901.31;5047546;28;20469;-74
2022/03/06 09:34:36;;;;;;;6.68;4.38;;;;;;;4.60;73.27;102885.97;5045683;28;20450;-73
2022/03/06 09:37:02;;;;;;;7.60;4.78;;;;;;;4.59;75.50;102897.22;5054545;28;20388;-73
2022/03/06 09:39:27;;;;;;;7.57;4.32;;;;;;;4.76;75.30;102893.25;5051853;28;20146;-75
2022/03/06 09:41:55;;;;;;;6.72;4.63;;;;;;;5.10;74.36;102898.31;5042520;28;20040;-74
2022/03/06 09:44:23;;;;;;;7.50;4.93;;;;;;;5.05;73.83;102891.06;5062681;28;20033;-72
2022/03/06 09:46:52;;;;;;;7.57;4.85;;;;;;;5.56;72.58;102889.44;5058756;28;20047;-72
2022/03/06 09:49:18;;;;;;;13.32;5.25;;;;;;;5.69;71.47;102890.28;5054467;28;20123;-73
2022/03/06 09:51:43;;;;;;;9.38;4.70;;;;;;;5.68;71.22;102888.47;5071187;28;20051;-72
2022/03/06 09:54:11;;;;;;;7.30;4.45;;;;;;;6.10;70.72;102888.75;5069936;28;20016;-72
2022/03/06 09:56:37;;;;;;;9.25;4.65;;;;;;;5.94;70.31;102895.53;5067282;28;20032;-72
2022/03/06 09:59:03;;;;;;;7.78;4.82;;;;;;;6.44;68.92;102886.66;5055164;28;20111;-72
2022/03/06 10:01:28;;;;;;;10.40;4.75;;;;;;;6.23;69.72;102891.38;5065266;28;20161;-73
2022/03/06 10:03:54;;;;;;;5.80;4.38;;;;;;;6.47;67.92;102883.34;5053424;28;20033;-73
2022/03/06 10:06:19;;;;;;;6.68;4.50;;;;;;;6.61;68.61;102893.03;5067895;28;20115;-73
2022/03/06 10:08:44;;;;;;;7.70;5.13;;;;;;;6.47;68.43;102893.81;5067620;28;20066;-73
2022/03/06 10:11:12;;;;;;;10.52;4.85;;;;;;;6.20;67.26;102894.69;5061522;28;20057;-73
2022/03/06 10:13:40;;;;;;;6.15;4.10;;;;;;;6.51;67.54;102894.16;5073575;28;20059;-74
2022/03/06 10:16:18;;;;;;;7.05;4.03;;;;;;;6.48;67.94;102896.53;5074042;28;20032;-74
2022/03/06 10:18:51;;;;;;;4.80;4.18;;;;;;;6.54;66.81;102888.22;5058602;28;20032;-72
2022/03/06 10:21:28;;;;;;;6.15;4.68;;;;;;;6.78;67.51;102898.47;5056931;28;20028;-73
2022/03/06 10:23:58;;;;;;;8.15;4.70;;;;;;;6.82;66.22;102895.25;5054497;28;20481;-73
2022/03/06 10:26:28;;;;;;;7.65;4.07;;;;;;;6.85;66.47;102890.19;5062485;28;20036;-72
2022/03/06 10:29:00;;;;;;;6.75;3.75;;;;;;;7.24;65.03;102891.88;5046028;28;20032;-73
2022/03/06 10:31:28;;;;;;;7.75;4.20;;;;;;;7.41;64.76;102907.72;5043430;28;20469;-73
2022/03/06 10:34:07;;;;;;;7.97;4.72;;;;;;;7.15;66.34;102906.06;5078120;28;20017;-73
2022/03/06 10:36:37;;;;;;;7.00;4.97;;;;;;;7.33;64.76;102909.84;5065556;28;20520;-73
2022/03/06 10:39:09;;;;;;;6.90;3.95;;;;;;;7.83;63.01;102911.19;5055729;28;20025;-74
2022/03/06 10:41:38;;;;;;;8.13;5.18;;;;;;;7.90;61.31;102904.63;5067489;28;20047;-73
2022/03/06 10:44:05;;;;;;;6.50;4.30;;;;;;;7.87;62.34;102909.69;5069607;28;20035;-73
2022/03/06 10:46:33;;;;;;;6.05;4.45;;;;;;;8.34;61.05;102906.38;5072728;28;20452;-71
2022/03/06 10:49:02;;;;;;;7.75;4.88;;;;;;;8.23;60.74;102908.38;5071870;28;20029;-71
2022/03/06 10:51:27;;;;;;;6.53;4.93;;;;;;;8.16;63.28;102915.78;5058938;28;20075;-71
2022/03/06 10:53:54;;;;;;;6.97;4.57;;;;;;;8.58;59.43;102906.91;5069977;28;20480;-71
2022/03/06 10:56:21;;;;;;;8.82;4.80;;;;;;;8.76;58.85;102900.94;5068736;28;20071;-71
2022/03/06 10:58:47;;;;;;;6.78;4.25;;;;;;;8.82;58.68;102903.91;5051333;28;20028;-71
2022/03/06 11:01:14;;;;;;;6.13;4.78;;;;;;;9.02;57.94;102893.63;5057382;28;20456;-70
2022/03/06 11:03:39;;;;;;;8.25;4.63;;;;;;;9.41;55.80;102892.31;5066710;28;20036;-70
2022/03/06 11:06:07;;;;;;;6.47;4.40;;;;;;;9.38;56.42;102897.38;5048962;28;20036;-70
2022/03/06 11:08:34;;;;;;;6.13;4.68;;;;;;;9.74;53.67;102891.38;5060913;28;20039;-70